Time;durP1;ratioP1;P1;durP2;ratioP2;P2;SDS_P1;SDS_P2;PMS_P1;PMS_P2;Temp;Humidity;BMP_temperature;BMP_pressure;BME280_temperature;BME280_humidity;BME280_pressure;Samples;Min_cycle;Max_cycle;Signal;HPM_P1;HPM_P2
2021/01/28 00:02:21;;;;;;;12.77;6.33;;;;;;;-2.33;79.68;98357.28;5035919;28;20045;-62
2021/01/28 00:04:46;;;;;;;15.70;7.07;;;;;;;-2.31;79.27;98358.19;5034669;28;20026;-62
2021/01/28 00:07:12;;;;;;;15.60;8.30;;;;;;;-2.24;79.08;98359.19;5035705;28;20349;-62
2021/01/28 00:09:37;;;;;;;13.90;6.97;;;;;;;-2.23;78.69;98360.91;5036283;28;20354;-62
2021/01/28 00:12:03;;;;;;;11.00;6.43;;;;;;;-2.19;78.65;98359.31;5034784;28;20461;-62
2021/01/28 00:14:28;;;;;;;14.20;6.87;;;;;;;-2.13;78.66;98349.44;5036698;28;20029;-62
2021/01/28 00:16:54;;;;;;;12.13;6.30;;;;;;;-2.09;79.12;98348.72;5035186;28;20026;-63
2021/01/28 00:19:19;;;;;;;17.53;7.13;;;;;;;-2.10;79.37;98352.88;5036561;28;20108;-62
2021/01/28 00:21:45;;;;;;;11.83;6.37;;;;;;;-2.04;78.88;98348.03;5034187;28;20033;-62
2021/01/28 00:24:10;;;;;;;11.07;6.43;;;;;;;-1.97;78.75;98344.00;5017779;28;20093;-63
2021/01/28 00:26:36;;;;;;;13.90;7.27;;;;;;;-1.93;78.71;98333.22;5016071;28;20065;-62
2021/01/28 00:29:03;;;;;;;8.90;6.43;;;;;;;-1.94;78.80;98334.03;5034467;28;20029;-63
2021/01/28 00:31:28;;;;;;;13.60;7.00;;;;;;;-1.85;78.31;98331.75;5035506;28;20099;-62
2021/01/28 00:33:53;;;;;;;10.53;7.17;;;;;;;-1.81;78.25;98318.44;5035311;28;20335;-62
2021/01/28 00:36:19;;;;;;;15.77;8.70;;;;;;;-1.79;78.37;98319.34;5035347;28;20065;-62
2021/01/28 00:38:44;;;;;;;14.37;8.07;;;;;;;-1.74;78.01;98321.97;5035299;28;20029;-62
2021/01/28 00:41:10;;;;;;;14.23;8.43;;;;;;;-1.66;77.87;98323.00;5036346;28;20025;-62
2021/01/28 00:43:37;;;;;;;10.30;7.20;;;;;;;-1.63;77.33;98328.09;5035091;28;20552;-62
2021/01/28 00:46:03;;;;;;;14.50;6.83;;;;;;;-1.64;77.42;98324.72;5035727;28;20037;-62
2021/01/28 00:48:29;;;;;;;11.83;7.03;;;;;;;-1.61;77.13;98332.31;5034682;28;20053;-62
2021/01/28 00:50:56;;;;;;;10.83;6.17;;;;;;;-1.52;76.51;98336.72;5035513;28;20504;-62
2021/01/28 00:53:22;;;;;;;11.03;5.67;;;;;;;-1.54;76.72;98338.38;5033419;28;20033;-62
2021/01/28 00:55:48;;;;;;;8.03;5.20;;;;;;;-1.47;76.38;98345.22;5036013;28;20029;-62
2021/01/28 00:58:15;;;;;;;12.00;5.03;;;;;;;-1.45;76.54;98338.59;5034318;28;20044;-62
2021/01/28 01:00:43;;;;;;;8.47;5.80;;;;;;;-1.41;75.80;98333.66;5036066;28;20108;-62
2021/01/28 01:03:10;;;;;;;9.50;5.13;;;;;;;-1.38;76.36;98325.31;5034373;28;20030;-62
2021/01/28 01:05:38;;;;;;;7.03;4.20;;;;;;;-1.38;75.93;98331.22;5036435;28;20116;-62
2021/01/28 01:08:06;;;;;;;8.77;5.00;;;;;;;-1.31;75.93;98332.19;5035045;28;20113;-62
2021/01/28 01:10:42;;;;;;;9.60;5.03;;;;;;;-1.28;75.57;98331.44;5036112;28;20434;-62
2021/01/28 01:13:12;;;;;;;12.63;5.10;;;;;;;-1.30;76.35;98326.34;5034674;28;20033;-62
2021/01/28 01:15:38;;;;;;;9.10;5.10;;;;;;;-1.26;75.81;98325.59;5016407;28;20112;-63
2021/01/28 01:18:05;;;;;;;8.37;4.73;;;;;;;-1.21;76.03;98324.03;5014959;28;20400;-62
2021/01/28 01:20:31;;;;;;;15.63;6.87;;;;;;;-1.22;75.43;98324.84;5033555;28;20033;-62
2021/01/28 01:22:56;;;;;;;9.57;5.67;;;;;;;-1.15;75.75;98325.84;5034901;28;20094;-62
2021/01/28 01:25:22;;;;;;;8.57;5.53;;;;;;;-1.14;76.09;98325.88;5034083;28;20048;-62
2021/01/28 01:27:48;;;;;;;9.30;5.87;;;;;;;-1.10;76.19;98324.25;5034856;28;20037;-62
2021/01/28 01:30:16;;;;;;;11.23;6.33;;;;;;;-1.10;76.59;98332.66;5034339;28;20035;-62
2021/01/28 01:32:42;;;;;;;12.03;5.93;;;;;;;-1.15;76.92;98323.34;5035031;28;20029;-62
2021/01/28 01:35:09;;;;;;;10.37;6.17;;;;;;;-1.06;77.35;98319.34;5033748;28;20131;-62
2021/01/28 01:37:35;;;;;;;10.90;6.00;;;;;;;-1.11;77.43;98323.44;5034830;28;20033;-62
2021/01/28 01:40:00;;;;;;;14.70;6.67;;;;;;;-1.10;77.23;98324.25;5033772;28;20036;-62
2021/01/28 01:42:26;;;;;;;11.33;6.40;;;;;;;-1.07;76.91;98321.84;5034946;28;20021;-62
2021/01/28 01:44:51;;;;;;;14.50;6.67;;;;;;;-1.04;76.99;98322.75;5032881;28;20025;-62
2021/01/28 01:47:49;;;;;;;16.00;7.83;;;;;;;-0.95;76.93;98332.16;5034519;28;20056;-62
2021/01/28 01:50:37;;;;;;;15.93;6.80;;;;;;;-0.94;76.67;98326.31;5032534;28;20554;-62
2021/01/28 01:53:06;;;;;;;12.30;5.53;;;;;;;-0.93;76.82;98313.75;5015807;28;20026;-62
2021/01/28 01:55:33;;;;;;;11.53;6.20;;;;;;;-0.95;76.74;98312.88;5013629;28;20060;-62
2021/01/28 01:58:01;;;;;;;12.27;5.73;;;;;;;-0.90;77.07;98302.91;5034011;28;20337;-62
2021/01/28 02:00:28;;;;;;;13.83;7.00;;;;;;;-0.92;78.06;98304.53;5033684;28;20349;-62
2021/01/28 02:03:00;;;;;;;9.07;5.50;;;;;;;-0.82;77.75;98293.84;5033968;28;20377;-62
2021/01/28 02:05:35;;;;;;;14.03;7.03;;;;;;;-0.83;78.01;98301.38;5032307;28;20044;-62
2021/01/28 02:08:04;;;;;;;12.77;6.60;;;;;;;-0.80;77.59;98294.72;5031351;28;20343;-61
2021/01/28 02:10:30;;;;;;;13.80;7.00;;;;;;;-0.86;77.21;98296.28;5033341;28;20044;-61
2021/01/28 02:12:55;;;;;;;10.60;7.10;;;;;;;-0.93;77.39;98291.09;5033360;28;20104;-61
2021/01/28 02:15:25;;;;;;;14.20;6.33;;;;;;;-0.85;77.48;98288.78;5033656;28;20037;-61
2021/01/28 02:17:55;;;;;;;8.67;6.47;;;;;;;-0.82;77.63;98293.84;5034046;28;20080;-61
2021/01/28 02:20:39;;;;;;;15.23;7.87;;;;;;;-0.77;77.57;98294.81;5033281;28;20123;-61
2021/01/28 02:23:42;;;;;;;13.03;7.10;;;;;;;-0.77;78.06;98296.47;5034209;28;20045;-61
2021/01/28 02:26:08;;;;;;;14.13;7.97;;;;;;;-0.86;78.79;98298.78;5042293;28;20045;-61
2021/01/28 02:28:34;;;;;;;12.43;7.60;;;;;;;-0.82;78.76;98298.88;5034271;28;20060;-61
2021/01/28 02:31:01;;;;;;;12.60;7.07;;;;;;;-0.79;79.30;98293.06;5032072;28;20124;-62
2021/01/28 02:33:52;;;;;;;9.93;6.13;;;;;;;-0.78;79.42;98297.28;5034517;28;20120;-62
2021/01/28 02:36:18;;;;;;;7.97;5.53;;;;;;;-0.79;79.57;98295.56;5032771;28;20037;-62
2021/01/28 02:38:44;;;;;;;11.97;5.67;;;;;;;-0.74;79.80;98301.56;5034143;28;20033;-62
2021/01/28 02:41:11;;;;;;;8.67;5.13;;;;;;;-0.67;79.89;98306.72;5032599;28;20091;-63
2021/01/28 02:43:37;;;;;;;8.30;4.73;;;;;;;-0.67;80.04;98305.88;5034263;28;20037;-62
2021/01/28 02:46:10;;;;;;;7.70;4.87;;;;;;;-0.57;79.61;98291.00;5033252;28;20120;-62
2021/01/28 02:48:36;;;;;;;8.93;4.97;;;;;;;-0.66;79.87;98290.81;5034341;28;20151;-62
2021/01/28 02:51:03;;;;;;;9.07;5.80;;;;;;;-0.78;80.26;98283.03;5033134;28;20357;-62
2021/01/28 02:53:35;;;;;;;5.97;5.10;;;;;;;-0.81;80.18;98275.44;5033145;28;20099;-62
2021/01/28 02:56:01;;;;;;;7.50;5.50;;;;;;;-0.86;80.52;98276.16;5033522;28;20112;-62
2021/01/28 02:58:26;;;;;;;9.87;4.97;;;;;;;-0.93;80.94;98270.13;5015505;28;20105;-62
2021/01/28 03:00:51;;;;;;;7.40;4.57;;;;;;;-0.88;80.80;98266.03;5012665;28;20040;-61
2021/01/28 03:03:17;;;;;;;9.57;5.00;;;;;;;-0.85;81.03;98263.59;5019085;28;20045;-61
2021/01/28 03:05:42;;;;;;;12.90;5.80;;;;;;;-0.81;80.75;98256.97;5013657;28;21330;-61
2021/01/28 03:08:08;;;;;;;7.83;4.60;;;;;;;-0.77;80.68;98258.72;5022155;28;20080;-61
2021/01/28 03:10:33;;;;;;;8.20;4.73;;;;;;;-0.78;80.58;98260.38;5013448;28;20196;-62
2021/01/28 03:12:59;;;;;;;6.87;4.67;;;;;;;-0.72;80.27;98257.97;5021051;28;20060;-62
2021/01/28 03:15:25;;;;;;;7.87;5.90;;;;;;;-0.76;80.99;98262.91;5031975;28;20030;-62
2021/01/28 03:17:53;;;;;;;8.60;5.27;;;;;;;-0.72;81.71;98259.66;5028916;28;20029;-62
2021/01/28 03:20:19;;;;;;;8.53;4.57;;;;;;;-0.68;81.52;98259.72;5033658;28;20393;-62
2021/01/28 03:22:45;;;;;;;9.40;5.77;;;;;;;-0.80;82.41;98254.47;5033664;28;20037;-62
2021/01/28 03:25:11;;;;;;;7.80;6.00;;;;;;;-0.73;82.66;98243.72;5033545;28;20022;-62
2021/01/28 03:27:38;;;;;;;8.07;5.33;;;;;;;-0.77;83.02;98248.66;5033459;28;20033;-63
2021/01/28 03:30:13;;;;;;;7.33;4.27;;;;;;;-0.61;83.40;98248.13;5032444;28;20021;-64
2021/01/28 03:32:38;;;;;;;5.93;4.78;;;;;;;-0.71;83.32;98249.59;5033737;28;20033;-63
2021/01/28 03:35:06;;;;;;;7.80;4.87;;;;;;;-0.72;83.88;98244.56;5033006;28;20049;-63
2021/01/28 03:37:31;;;;;;;10.03;4.93;;;;;;;-0.78;84.50;98237.75;5033312;28;20033;-62
2021/01/28 03:39:57;;;;;;;6.20;4.93;;;;;;;-0.78;84.73;98241.91;5033394;28;20065;-64
2021/01/28 03:42:22;;;;;;;8.57;5.00;;;;;;;-0.80;85.33;98236.84;5033279;28;20025;-63
2021/01/28 03:44:48;;;;;;;7.17;5.27;;;;;;;-0.80;85.92;98226.78;5032286;28;20112;-64
2021/01/28 03:47:13;;;;;;;6.50;4.80;;;;;;;-0.81;85.39;98224.25;5033225;28;20021;-64
2021/01/28 03:49:38;;;;;;;8.00;5.43;;;;;;;-0.74;85.34;98218.50;5033121;28;20037;-64
2021/01/28 03:52:04;;;;;;;8.80;5.67;;;;;;;-0.73;85.32;98225.25;5033387;28;20059;-64
2021/01/28 03:54:29;;;;;;;10.50;5.30;;;;;;;-0.67;85.21;98212.75;5033468;28;20025;-63
2021/01/28 03:56:55;;;;;;;13.87;7.23;;;;;;;-0.62;85.42;98208.66;5033413;28;20043;-63
2021/01/28 03:59:20;;;;;;;10.23;5.97;;;;;;;-0.59;85.34;98213.75;5032393;28;20079;-64
2021/01/28 04:01:45;;;;;;;10.07;6.70;;;;;;;-0.54;85.01;98204.59;5033308;28;20100;-64
2021/01/28 04:04:11;;;;;;;10.50;5.97;;;;;;;-0.55;85.28;98198.72;5026961;28;20022;-64
2021/01/28 04:06:36;;;;;;;9.50;7.33;;;;;;;-0.52;85.08;98202.97;5028748;28;20524;-64
2021/01/28 04:09:03;;;;;;;11.30;6.43;;;;;;;-0.51;84.93;98199.66;5031603;28;20051;-64
2021/01/28 04:11:28;;;;;;;12.53;7.57;;;;;;;-0.62;85.19;98198.59;5030503;28;20413;-64
2021/01/28 04:13:53;;;;;;;9.77;6.80;;;;;;;-0.59;85.05;98194.47;5034058;28;20051;-64
2021/01/28 04:16:19;;;;;;;11.20;6.20;;;;;;;-0.59;85.28;98198.63;5033211;28;20068;-64
2021/01/28 04:18:44;;;;;;;13.27;6.80;;;;;;;-0.62;85.46;98188.53;5034660;28;20037;-64
2021/01/28 04:21:09;;;;;;;11.10;6.43;;;;;;;-0.58;85.27;98186.09;5033850;28;20685;-64
2021/01/28 04:23:35;;;;;;;10.20;6.63;;;;;;;-0.54;85.12;98182.81;5035470;28;20112;-62
2021/01/28 04:26:00;;;;;;;9.03;6.50;;;;;;;-0.55;85.05;98176.06;5035400;28;20025;-61
2021/01/28 04:28:26;;;;;;;8.57;6.70;;;;;;;-0.57;85.19;98176.88;5036065;28;20112;-61
2021/01/28 04:30:51;;;;;;;12.00;6.60;;;;;;;-0.57;85.47;98182.75;5035101;28;20442;-63
2021/01/28 04:33:16;;;;;;;8.90;6.30;;;;;;;-0.54;85.34;98177.78;5017667;28;20030;-63
2021/01/28 04:35:42;;;;;;;10.53;7.33;;;;;;;-0.58;85.44;98171.00;5032356;28;20454;-63
2021/01/28 04:38:07;;;;;;;9.80;7.23;;;;;;;-0.57;85.71;98172.69;5032949;28;20045;-63
2021/01/28 04:40:46;;;;;;;8.90;6.47;;;;;;;-0.54;85.63;98161.81;5032780;28;20030;-63
2021/01/28 04:43:25;;;;;;;7.63;6.20;;;;;;;-0.54;85.73;98166.84;5024725;28;20403;-63
2021/01/28 04:45:53;;;;;;;8.27;6.43;;;;;;;-0.60;85.74;98165.09;5020114;28;20472;-66
2021/01/28 04:48:18;;;;;;;10.77;8.37;;;;;;;-0.63;85.68;98164.16;5036395;28;20021;-65
2021/01/28 04:50:44;;;;;;;9.43;7.00;;;;;;;-0.67;85.80;98159.91;5031281;28;20450;-63
2021/01/28 04:53:40;;;;;;;9.30;6.63;;;;;;;-0.67;86.09;98152.34;5016716;28;20178;-63
2021/01/28 04:56:21;;;;;;;11.52;7.63;;;;;;;-0.68;86.43;98155.72;5018452;28;20034;-64
2021/01/28 04:58:47;;;;;;;11.83;7.00;;;;;;;-0.71;86.50;98158.16;5036681;28;20030;-63
2021/01/28 05:01:13;;;;;;;11.03;6.87;;;;;;;-0.70;86.18;98163.22;5033079;28;20025;-63
2021/01/28 05:03:43;;;;;;;12.47;7.63;;;;;;;-0.62;85.99;98165.88;5034829;28;20537;-63
2021/01/28 05:06:10;;;;;;;9.50;7.77;;;;;;;-0.77;85.91;98166.47;5034329;28;20034;-63
2021/01/28 05:08:36;;;;;;;11.13;7.57;;;;;;;-0.90;86.17;98164.53;5032791;28;20036;-63
2021/01/28 05:11:01;;;;;;;11.60;8.10;;;;;;;-0.85;86.26;98162.13;5034467;28;20044;-63
2021/01/28 05:13:37;;;;;;;10.50;7.07;;;;;;;-0.82;86.60;98154.63;5033801;28;20112;-62
2021/01/28 05:16:24;;;;;;;9.53;6.53;;;;;;;-0.81;86.57;98147.09;5035048;28;20076;-63
2021/01/28 05:18:59;;;;;;;10.30;6.97;;;;;;;-0.81;86.42;98146.25;5034702;28;20029;-63
2021/01/28 05:21:28;;;;;;;12.17;8.40;;;;;;;-0.83;86.58;98147.88;5034528;28;20056;-63
2021/01/28 05:24:04;;;;;;;12.80;9.70;;;;;;;-0.82;86.61;98142.88;5019921;28;20030;-63
2021/01/28 05:26:32;;;;;;;;;;;;;;;-0.88;86.54;98141.91;5015366;28;20457;-63
2021/01/28 05:29:19;;;;;;;10.97;7.93;;;;;;;-0.86;86.56;98146.16;5028302;28;20338;-63
2021/01/28 05:31:46;;;;;;;8.17;6.27;;;;;;;-0.90;86.52;98144.41;5034386;28;20025;-63
2021/01/28 05:34:13;;;;;;;11.00;6.97;;;;;;;-0.85;86.21;98144.50;5034202;28;20053;-63
2021/01/28 05:36:51;;;;;;;8.83;5.87;;;;;;;-0.81;85.62;98149.63;5034658;28;20112;-63
2021/01/28 05:39:38;;;;;;;7.33;5.57;;;;;;;-0.82;85.71;98145.41;5018256;28;20022;-63
2021/01/28 05:42:15;;;;;;;9.10;5.67;;;;;;;-0.88;85.86;98140.25;5016627;28;20411;-63
2021/01/28 05:44:41;;;;;;;10.83;6.57;;;;;;;-0.95;86.16;98136.78;5034757;28;20025;-63
2021/01/28 05:47:10;;;;;;;11.57;7.70;;;;;;;-1.01;86.22;98131.63;5033994;28;20468;-63
2021/01/28 05:49:41;;;;;;;12.93;7.67;;;;;;;-0.97;86.27;98130.00;5033958;28;20029;-63
2021/01/28 05:52:25;;;;;;;19.87;8.60;;;;;;;-1.00;86.20;98133.34;5034222;28;20116;-63
2021/01/28 05:55:14;;;;;;;17.07;9.37;;;;;;;-0.99;86.22;98137.56;5034217;28;20056;-62
2021/01/28 05:57:46;;;;;;;14.87;8.30;;;;;;;-0.97;86.12;98130.00;5033747;28;20623;-63
2021/01/28 06:00:48;;;;;;;13.07;7.80;;;;;;;-0.98;86.14;98123.31;5033466;28;20067;-63
2021/01/28 06:03:35;;;;;;;14.87;8.37;;;;;;;-1.11;85.80;98129.78;5034057;28;20040;-63
2021/01/28 06:06:23;;;;;;;15.00;8.73;;;;;;;-1.00;86.38;98133.34;5033402;28;20069;-63
2021/01/28 06:09:24;;;;;;;15.27;8.73;;;;;;;-1.02;86.53;98124.91;5034205;28;20029;-63
2021/01/28 06:12:01;;;;;;;14.33;9.00;;;;;;;-1.15;86.25;98130.56;5027792;28;20446;-63
2021/01/28 06:14:36;;;;;;;13.83;9.43;;;;;;;-1.06;86.36;98123.16;5016483;28;20424;-63
2021/01/28 06:17:26;;;;;;;12.87;7.60;;;;;;;-1.02;86.27;98119.88;5030792;28;20358;-64
2021/01/28 06:20:28;;;;;;;18.20;9.10;;;;;;;-1.04;86.18;98121.53;5018375;28;20320;-61
2021/01/28 06:23:20;;;;;;;19.30;10.07;;;;;;;-1.08;86.27;98129.84;5023043;28;20029;-61
2021/01/28 06:25:59;;;;;;;22.90;10.47;;;;;;;-1.11;86.34;98139.84;5014028;28;20025;-62
2021/01/28 06:28:44;;;;;;;21.77;10.80;;;;;;;-1.06;85.96;98135.72;5030980;28;20029;-61
2021/01/28 06:31:42;;;;;;;20.07;9.90;;;;;;;-1.00;86.20;98129.97;5029458;28;20033;-62
2021/01/28 06:34:28;;;;;;;25.77;11.20;;;;;;;-1.00;85.73;98125.78;5013402;28;20356;-61
2021/01/28 06:37:19;;;;;;;23.00;11.63;;;;;;;-0.93;85.80;98137.66;5017530;28;20029;-63
2021/01/28 06:39:49;;;;;;;17.97;10.00;;;;;;;-0.88;85.58;98126.81;5033649;28;20021;-62
2021/01/28 06:42:29;;;;;;;15.50;9.07;;;;;;;-0.87;85.01;98139.44;5032280;28;20029;-62
2021/01/28 06:45:10;;;;;;;17.20;9.63;;;;;;;-0.77;84.88;98140.44;5032548;28;20040;-62
2021/01/28 06:47:45;;;;;;;21.47;12.60;;;;;;;-0.77;85.01;98135.41;5032664;28;20049;-62
2021/01/28 06:50:22;;;;;;;21.60;10.98;;;;;;;-0.69;85.24;98129.69;5033128;28;20127;-62
2021/01/28 06:52:56;;;;;;;24.43;10.43;;;;;;;-0.67;84.53;98135.59;5024389;28;20022;-63
2021/01/28 06:55:43;;;;;;;22.03;10.97;;;;;;;-0.57;84.52;98144.16;5029375;28;20061;-62
2021/01/28 06:58:19;;;;;;;19.03;9.40;;;;;;;-0.55;84.89;98138.31;5032804;28;20025;-63
2021/01/28 07:00:50;;;;;;;13.77;8.60;;;;;;;-0.55;84.36;98135.78;5033376;28;20031;-63
2021/01/28 07:03:37;;;;;;;14.87;9.17;;;;;;;-0.38;83.54;98135.25;5032803;28;20465;-63
2021/01/28 07:06:11;;;;;;;15.73;8.47;;;;;;;-0.35;83.51;98130.25;5029959;28;20442;-62
2021/01/28 07:08:52;;;;;;;11.57;7.00;;;;;;;-0.46;83.80;98133.44;5014139;28;20022;-61
2021/01/28 07:11:27;;;;;;;18.93;8.87;;;;;;;-0.50;84.01;98133.34;5012964;28;20022;-62
2021/01/28 07:13:52;;;;;;;;;;;;;;;-0.41;83.78;98125.09;5029856;28;20052;-63
2021/01/28 07:16:34;;;;;;;15.27;7.70;;;;;;;-0.26;83.18;98115.28;5032831;28;20003;-61
2021/01/28 07:19:06;;;;;;;19.03;9.87;;;;;;;-0.22;83.42;98115.34;5032876;28;20081;-62
2021/01/28 07:21:40;;;;;;;16.97;8.87;;;;;;;-0.27;82.92;98116.94;5033128;28;20109;-62
2021/01/28 07:24:08;;;;;;;18.00;10.57;;;;;;;-0.11;82.90;98116.34;5028699;28;20350;-63
2021/01/28 07:27:12;;;;;;;17.97;9.87;;;;;;;-0.03;81.64;98108.88;5033575;28;20029;-62
2021/01/28 07:29:45;;;;;;;23.17;10.77;;;;;;;-0.09;81.94;98113.84;5028202;28;20175;-62
2021/01/28 07:32:33;;;;;;;17.50;10.53;;;;;;;-0.08;81.39;98105.44;5022097;28;20037;-62
2021/01/28 07:35:35;;;;;;;6.83;5.00;;;;;;;0.08;79.26;98097.31;5021493;28;20359;-63
2021/01/28 07:38:29;;;;;;;6.37;4.70;;;;;;;0.16;78.17;98098.25;4983735;28;20113;-62
2021/01/28 07:41:03;;;;;;;7.10;4.60;;;;;;;0.36;77.90;98093.44;5019838;28;20057;-61
2021/01/28 07:43:33;;;;;;;8.80;5.40;;;;;;;0.47;77.12;98091.91;5017384;28;20522;-62
2021/01/28 07:46:32;;;;;;;9.57;6.97;;;;;;;0.59;76.56;98081.13;5024381;28;20040;-61
2021/01/28 07:49:11;;;;;;;13.13;5.77;;;;;;;0.64;75.77;98082.84;5030545;28;20382;-61
2021/01/28 07:51:41;;;;;;;10.77;5.77;;;;;;;0.84;75.95;98086.47;5032797;28;20042;-61
2021/01/28 07:54:24;;;;;;;16.93;9.00;;;;;;;0.84;74.42;98088.13;5032339;28;20096;-61
2021/01/28 07:57:02;;;;;;;12.07;7.40;;;;;;;0.97;74.02;98084.06;5030900;28;20034;-62
2021/01/28 07:59:33;;;;;;;9.30;6.00;;;;;;;1.05;73.32;98075.72;5033042;28;20139;-62
2021/01/28 08:02:16;;;;;;;10.90;5.43;;;;;;;0.92;72.97;98073.91;5028392;28;20025;-61
2021/01/28 08:04:42;;;;;;;6.73;4.57;;;;;;;1.08;73.50;98072.38;5031820;28;20037;-61
2021/01/28 08:07:12;;;;;;;9.47;5.80;;;;;;;1.18;72.36;98069.97;5035248;28;20357;-62
2021/01/28 08:09:50;;;;;;;12.63;6.60;;;;;;;1.19;72.32;98073.34;5035444;28;20346;-62
2021/01/28 08:12:23;;;;;;;7.53;4.80;;;;;;;1.23;71.70;98072.53;5036250;28;20358;-62
2021/01/28 08:14:50;;;;;;;9.40;4.17;;;;;;;1.33;70.93;98071.75;5031956;28;20045;-62
2021/01/28 08:17:21;;;;;;;9.77;4.57;;;;;;;1.44;70.81;98070.19;5032123;28;20044;-62
2021/01/28 08:19:46;;;;;;;4.77;3.70;;;;;;;1.62;70.69;98069.44;5034058;28;20450;-62
2021/01/28 08:22:16;;;;;;;6.40;4.43;;;;;;;1.68;70.15;98070.34;5034909;28;20116;-63
2021/01/28 08:24:51;;;;;;;7.93;4.80;;;;;;;1.91;69.97;98062.91;5035240;28;20362;-62
2021/01/28 08:27:34;;;;;;;5.97;3.97;;;;;;;1.99;69.58;98055.38;5033461;28;20373;-63
2021/01/28 08:30:16;;;;;;;8.10;5.93;;;;;;;2.14;68.77;98048.72;5034325;28;20036;-61
2021/01/28 08:32:44;;;;;;;7.63;5.47;;;;;;;2.14;68.55;98046.19;5035155;28;20143;-61
2021/01/28 08:35:39;;;;;;;7.93;4.47;;;;;;;2.26;67.86;98035.25;5025831;28;20046;-62
2021/01/28 08:38:16;;;;;;;7.80;4.83;;;;;;;2.47;66.90;98042.94;5020570;28;20053;-61
2021/01/28 08:40:54;;;;;;;4.90;3.87;;;;;;;2.54;66.49;98042.13;5020777;28;20036;-61
2021/01/28 08:43:20;;;;;;;6.13;4.53;;;;;;;2.58;65.88;98037.94;5026115;28;20017;-61
2021/01/28 08:45:46;;;;;;;11.73;6.57;;;;;;;2.62;65.65;98042.16;5020703;28;20446;-62
2021/01/28 08:48:15;;;;;;;10.83;5.90;;;;;;;2.77;65.87;98034.59;5025135;28;20100;-63
2021/01/28 08:50:43;;;;;;;8.97;6.00;;;;;;;2.86;65.67;98038.81;5020470;28;20161;-63
2021/01/28 08:53:19;;;;;;;8.70;5.53;;;;;;;2.78;64.08;98041.34;5021086;28;20394;-63
2021/01/28 08:55:45;;;;;;;7.67;4.60;;;;;;;2.88;63.94;98034.63;5033940;28;20025;-63
2021/01/28 08:58:26;;;;;;;9.03;5.63;;;;;;;3.14;64.68;98030.44;5035131;28;20036;-63
2021/01/28 09:00:59;;;;;;;7.73;4.30;;;;;;;2.99;64.10;98032.94;5035950;28;20033;-63
2021/01/28 09:03:33;;;;;;;8.17;4.70;;;;;;;2.94;64.16;98030.41;5035521;28;20111;-63
2021/01/28 09:06:00;;;;;;;7.30;4.77;;;;;;;2.86;64.30;98026.16;5035702;28;20041;-63
2021/01/28 09:08:34;;;;;;;10.97;4.53;;;;;;;2.97;64.60;98016.91;5034421;28;20743;-63
2021/01/28 09:11:09;;;;;;;8.50;5.30;;;;;;;2.98;64.46;98019.44;5019170;28;20495;-63
2021/01/28 09:13:35;;;;;;;11.98;5.28;;;;;;;3.02;63.65;98020.28;5030633;28;20350;-63
2021/01/28 09:16:17;;;;;;;7.93;5.27;;;;;;;2.84;64.40;98022.81;5034286;28;20109;-63
2021/01/28 09:18:46;;;;;;;6.17;4.43;;;;;;;2.99;63.92;98017.75;5035973;28;20065;-63
2021/01/28 09:21:16;;;;;;;8.87;5.67;;;;;;;3.14;63.70;98020.31;5035192;28;20116;-63
2021/01/28 09:23:59;;;;;;;9.33;4.93;;;;;;;3.45;64.27;98011.84;5022921;28;20026;-63
2021/01/28 09:26:31;;;;;;;6.20;4.03;;;;;;;3.69;63.64;98004.19;5035476;28;20034;-62
2021/01/28 09:29:21;;;;;;;7.17;4.47;;;;;;;3.90;62.68;98002.47;5035906;28;20469;-62
2021/01/28 09:31:48;;;;;;;6.37;4.40;;;;;;;4.12;62.86;97999.00;5035779;28;20033;-62
2021/01/28 09:34:23;;;;;;;7.27;3.73;;;;;;;4.31;61.84;98004.84;5034087;28;20366;-62
2021/01/28 09:36:57;;;;;;;;;;;;;;;4.32;61.28;97993.88;5035080;28;20010;-62
2021/01/28 09:39:45;;;;;;;9.43;5.03;;;;;;;4.59;61.61;97994.53;5028105;28;19913;-62
2021/01/28 09:42:25;;;;;;;9.73;5.43;;;;;;;4.89;60.95;97979.97;5031538;28;20033;-62
2021/01/28 09:44:52;;;;;;;10.80;5.53;;;;;;;5.05;60.64;97972.22;5031657;28;20017;-63
2021/01/28 09:47:31;;;;;;;8.60;5.87;;;;;;;5.16;60.44;97958.59;5034221;28;20013;-62
2021/01/28 09:49:59;;;;;;;12.77;5.83;;;;;;;5.44;59.82;97963.41;5030726;28;20017;-62
2021/01/28 09:52:26;;;;;;;5.77;4.90;;;;;;;5.63;60.37;97950.53;5032813;28;20064;-61
2021/01/28 09:55:00;;;;;;;7.97;5.33;;;;;;;5.88;59.52;97951.97;5032130;28;20021;-61
2021/01/28 09:57:27;;;;;;;6.37;4.23;;;;;;;6.03;59.17;97946.69;5031653;28;20405;-62
2021/01/28 09:59:54;;;;;;;6.80;3.87;;;;;;;6.11;57.91;97949.19;5037268;28;20018;-62
2021/01/28 10:02:28;;;;;;;6.10;3.10;;;;;;;6.19;57.80;97943.13;5032448;28;20060;-62
2021/01/28 10:04:53;;;;;;;3.87;3.13;;;;;;;6.15;58.08;97938.09;5033550;28;20021;-62
2021/01/28 10:07:19;;;;;;;5.17;3.20;;;;;;;5.79;57.31;97941.88;5033229;28;20025;-62
2021/01/28 10:09:44;;;;;;;4.57;2.90;;;;;;;6.01;57.54;97932.34;5024907;28;20041;-62
2021/01/28 10:12:12;;;;;;;4.83;3.10;;;;;;;5.85;57.70;97924.88;5030368;28;20093;-61
2021/01/28 10:14:37;;;;;;;5.67;2.70;;;;;;;6.15;57.06;97922.84;5030772;28;20029;-61
2021/01/28 10:17:02;;;;;;;5.03;3.27;;;;;;;6.25;56.62;97921.84;5033773;28;20083;-62
2021/01/28 10:19:28;;;;;;;4.47;2.93;;;;;;;6.34;57.61;97917.47;5034628;28;20033;-62
2021/01/28 10:21:54;;;;;;;5.10;3.50;;;;;;;6.38;56.84;97923.34;5033005;28;20029;-62
2021/01/28 10:24:19;;;;;;;3.80;2.90;;;;;;;5.60;57.17;97927.69;5014136;28;20450;-63
2021/01/28 10:26:45;;;;;;;26.53;12.30;;;;;;;5.91;58.24;97912.09;5014508;28;20033;-63
2021/01/28 10:29:10;;;;;;;32.17;17.50;;;;;;;6.26;57.12;97908.25;5030296;28;20025;-62
2021/01/28 10:31:36;;;;;;;9.43;6.40;;;;;;;5.56;57.54;97893.81;5034289;28;20036;-62
2021/01/28 10:34:01;;;;;;;7.23;4.27;;;;;;;5.55;57.22;97879.44;5034019;28;20099;-62
2021/01/28 10:36:27;;;;;;;6.80;4.87;;;;;;;5.81;57.36;97871.50;5033765;28;20025;-62
2021/01/28 10:38:53;;;;;;;7.73;5.37;;;;;;;6.05;56.52;97880.53;5033862;28;20057;-62
2021/01/28 10:41:19;;;;;;;17.30;6.20;;;;;;;5.60;57.61;97870.03;5033319;28;20033;-63
2021/01/28 10:43:44;;;;;;;8.13;4.83;;;;;;;5.88;57.57;97865.50;5034938;28;20029;-63
2021/01/28 10:46:10;;;;;;;9.50;5.47;;;;;;;6.37;57.11;97851.22;5031427;28;20422;-62
2021/01/28 10:48:35;;;;;;;9.63;5.07;;;;;;;6.72;56.41;97847.28;5033757;28;20119;-62
2021/01/28 10:51:03;;;;;;;6.63;4.53;;;;;;;6.92;56.26;97841.88;5033629;28;20445;-61
2021/01/28 10:53:29;;;;;;;7.77;3.67;;;;;;;7.00;54.97;97833.22;5025353;28;20033;-63
2021/01/28 10:55:54;;;;;;;5.00;3.60;;;;;;;7.15;54.65;97844.84;5030173;28;20432;-63
2021/01/28 10:58:26;;;;;;;3.87;3.27;;;;;;;7.33;52.93;97842.81;5023638;28;20358;-63
2021/01/28 11:00:52;;;;;;;4.93;3.60;;;;;;;7.52;53.10;97834.78;5032136;28;20113;-63
2021/01/28 11:03:17;;;;;;;7.97;3.87;;;;;;;7.69;52.38;97827.66;5034025;28;20108;-62
2021/01/28 11:05:44;;;;;;;4.30;3.70;;;;;;;7.68;52.22;97836.19;5030836;28;20494;-62
2021/01/28 11:08:09;;;;;;;4.33;3.90;;;;;;;7.81;52.41;97828.22;5032793;28;20371;-62
2021/01/28 11:10:36;;;;;;;5.93;4.77;;;;;;;7.95;51.97;97819.44;5013770;28;20025;-62
2021/01/28 11:13:02;;;;;;;8.47;6.00;;;;;;;7.91;51.98;97816.13;5031192;28;20022;-64
2021/01/28 11:15:33;;;;;;;6.27;4.73;;;;;;;7.88;51.61;97800.03;5028803;28;20048;-61
2021/01/28 11:17:59;;;;;;;8.67;5.77;;;;;;;7.60;51.59;97799.78;5031792;28;20032;-62
2021/01/28 11:20:24;;;;;;;7.40;4.93;;;;;;;7.63;52.27;97805.69;5031073;28;20033;-61
2021/01/28 11:22:50;;;;;;;7.63;4.97;;;;;;;7.51;52.86;97799.97;5018331;28;20030;-62
2021/01/28 11:25:18;;;;;;;7.07;5.47;;;;;;;7.50;52.93;97793.19;5034214;28;20393;-62
2021/01/28 11:27:45;;;;;;;6.40;4.77;;;;;;;7.31;53.71;97783.34;5037094;28;20052;-62
2021/01/28 11:30:12;;;;;;;6.33;5.60;;;;;;;7.42;53.73;97782.31;5036772;28;20044;-62
2021/01/28 11:32:38;;;;;;;7.57;5.23;;;;;;;7.40;52.96;97784.88;5038459;28;20041;-62
2021/01/28 11:35:05;;;;;;;7.83;5.00;;;;;;;7.06;53.97;97779.59;5036199;28;20041;-63
2021/01/28 11:37:30;;;;;;;8.17;5.63;;;;;;;6.94;53.71;97767.09;5038256;28;20022;-63
2021/01/28 11:39:56;;;;;;;7.13;5.60;;;;;;;6.83;55.37;97771.56;5034966;28;20106;-63
2021/01/28 11:42:21;;;;;;;8.87;5.97;;;;;;;6.65;55.17;97765.06;5032175;28;20066;-63
2021/01/28 11:44:46;;;;;;;8.07;6.10;;;;;;;6.74;54.55;97757.28;5030857;28;20029;-63
2021/01/28 11:47:12;;;;;;;8.63;6.23;;;;;;;6.84;55.19;97757.94;5027185;28;20025;-64
2021/01/28 11:49:38;;;;;;;7.77;6.03;;;;;;;6.93;54.45;97742.47;5024231;28;20981;-62
2021/01/28 11:52:03;;;;;;;6.47;5.23;;;;;;;6.92;54.18;97734.88;5032945;28;20048;-63
2021/01/28 11:54:29;;;;;;;8.50;5.37;;;;;;;7.08;53.49;97737.09;5037020;28;20121;-64